sensor_id;sensor_type;location;lat;lon;timestamp;P1;durP1;ratioP1;P2;durP2;ratioP2
48040;SDS011;33815;48.386;11.738;2024-01-30T00:01:35;27.45;;;17.23;;
48040;SDS011;33815;48.386;11.738;2024-01-30T00:04:00;24.13;;;15.35;;
48040;SDS011;33815;48.386;11.738;2024-01-30T00:06:26;27.35;;;16.00;;
48040;SDS011;33815;48.386;11.738;2024-01-30T00:08:51;26.73;;;16.02;;
48040;SDS011;33815;48.386;11.738;2024-01-30T00:11:16;24.27;;;15.60;;
48040;SDS011;33815;48.386;11.738;2024-01-30T00:13:41;23.27;;;15.73;;
48040;SDS011;33815;48.386;11.738;2024-01-30T00:16:07;29.17;;;16.58;;
48040;SDS011;33815;48.386;11.738;2024-01-30T00:18:33;28.88;;;15.38;;
48040;SDS011;33815;48.386;11.738;2024-01-30T00:20:59;26.77;;;15.90;;
48040;SDS011;33815;48.386;11.738;2024-01-30T00:23:24;29.70;;;16.92;;
48040;SDS011;33815;48.386;11.738;2024-01-30T00:25:50;27.38;;;16.83;;
48040;SDS011;33815;48.386;11.738;2024-01-30T00:28:15;28.30;;;16.40;;
48040;SDS011;33815;48.386;11.738;2024-01-30T00:30:40;31.63;;;16.83;;
48040;SDS011;33815;48.386;11.738;2024-01-30T00:33:06;27.92;;;17.05;;
48040;SDS011;33815;48.386;11.738;2024-01-30T00:35:31;28.85;;;16.27;;
48040;SDS011;33815;48.386;11.738;2024-01-30T00:37:56;29.60;;;15.23;;
48040;SDS011;33815;48.386;11.738;2024-01-30T00:40:22;28.38;;;16.67;;
48040;SDS011;33815;48.386;11.738;2024-01-30T00:42:47;22.15;;;14.75;;
48040;SDS011;33815;48.386;11.738;2024-01-30T00:45:15;27.40;;;15.85;;
48040;SDS011;33815;48.386;11.738;2024-01-30T00:47:41;31.83;;;15.90;;
48040;SDS011;33815;48.386;11.738;2024-01-30T00:50:07;30.33;;;16.65;;
48040;SDS011;33815;48.386;11.738;2024-01-30T00:52:33;28.35;;;16.10;;
48040;SDS011;33815;48.386;11.738;2024-01-30T00:54:58;25.17;;;15.00;;
48040;SDS011;33815;48.386;11.738;2024-01-30T00:57:24;23.00;;;13.98;;
48040;SDS011;33815;48.386;11.738;2024-01-30T00:59:50;23.38;;;15.27;;
48040;SDS011;33815;48.386;11.738;2024-01-30T01:02:15;31.08;;;15.82;;
48040;SDS011;33815;48.386;11.738;2024-01-30T01:04:42;20.08;;;14.45;;
48040;SDS011;33815;48.386;11.738;2024-01-30T01:07:08;25.92;;;15.77;;
48040;SDS011;33815;48.386;11.738;2024-01-30T01:09:33;24.13;;;14.10;;
48040;SDS011;33815;48.386;11.738;2024-01-30T01:11:59;24.05;;;15.00;;
48040;SDS011;33815;48.386;11.738;2024-01-30T01:14:24;31.63;;;15.50;;
48040;SDS011;33815;48.386;11.738;2024-01-30T01:16:50;32.40;;;15.40;;
48040;SDS011;33815;48.386;11.738;2024-01-30T01:19:15;32.20;;;14.95;;
48040;SDS011;33815;48.386;11.738;2024-01-30T01:21:40;29.00;;;17.42;;
48040;SDS011;33815;48.386;11.738;2024-01-30T01:24:06;24.38;;;14.15;;
48040;SDS011;33815;48.386;11.738;2024-01-30T01:26:31;24.15;;;15.00;;
48040;SDS011;33815;48.386;11.738;2024-01-30T01:28:56;26.60;;;15.32;;
48040;SDS011;33815;48.386;11.738;2024-01-30T01:31:22;29.05;;;14.98;;
48040;SDS011;33815;48.386;11.738;2024-01-30T01:33:49;28.33;;;15.02;;
48040;SDS011;33815;48.386;11.738;2024-01-30T01:36:15;27.55;;;15.45;;
48040;SDS011;33815;48.386;11.738;2024-01-30T01:38:40;25.05;;;15.60;;
48040;SDS011;33815;48.386;11.738;2024-01-30T01:41:05;24.70;;;15.00;;
48040;SDS011;33815;48.386;11.738;2024-01-30T01:43:30;26.67;;;14.80;;
48040;SDS011;33815;48.386;11.738;2024-01-30T01:45:56;25.98;;;14.70;;
48040;SDS011;33815;48.386;11.738;2024-01-30T01:48:21;30.35;;;17.40;;
48040;SDS011;33815;48.386;11.738;2024-01-30T01:50:46;22.50;;;14.95;;
48040;SDS011;33815;48.386;11.738;2024-01-30T01:53:12;26.55;;;14.65;;
48040;SDS011;33815;48.386;11.738;2024-01-30T01:55:37;25.52;;;16.10;;
48040;SDS011;33815;48.386;11.738;2024-01-30T01:58:03;27.40;;;15.55;;
48040;SDS011;33815;48.386;11.738;2024-01-30T02:00:29;24.13;;;14.73;;
48040;SDS011;33815;48.386;11.738;2024-01-30T02:02:54;23.50;;;15.52;;
48040;SDS011;33815;48.386;11.738;2024-01-30T02:05:21;28.90;;;15.32;;
48040;SDS011;33815;48.386;11.738;2024-01-30T02:07:47;25.42;;;15.65;;
48040;SDS011;33815;48.386;11.738;2024-01-30T02:10:12;28.35;;;15.57;;
48040;SDS011;33815;48.386;11.738;2024-01-30T02:12:38;27.88;;;15.73;;
48040;SDS011;33815;48.386;11.738;2024-01-30T02:15:03;29.23;;;14.70;;
48040;SDS011;33815;48.386;11.738;2024-01-30T02:17:30;29.63;;;16.20;;
48040;SDS011;33815;48.386;11.738;2024-01-30T02:19:55;32.75;;;16.17;;
48040;SDS011;33815;48.386;11.738;2024-01-30T02:22:20;32.22;;;15.85;;
48040;SDS011;33815;48.386;11.738;2024-01-30T02:24:47;26.85;;;15.57;;
48040;SDS011;33815;48.386;11.738;2024-01-30T02:27:12;28.05;;;15.40;;
48040;SDS011;33815;48.386;11.738;2024-01-30T02:29:37;25.10;;;14.38;;
48040;SDS011;33815;48.386;11.738;2024-01-30T02:32:03;22.38;;;14.32;;
48040;SDS011;33815;48.386;11.738;2024-01-30T02:34:28;21.73;;;13.98;;
48040;SDS011;33815;48.386;11.738;2024-01-30T02:36:54;23.45;;;15.15;;
48040;SDS011;33815;48.386;11.738;2024-01-30T02:39:19;25.70;;;13.18;;
48040;SDS011;33815;48.386;11.738;2024-01-30T02:41:44;24.77;;;15.38;;
48040;SDS011;33815;48.386;11.738;2024-01-30T02:44:10;23.98;;;14.75;;
48040;SDS011;33815;48.386;11.738;2024-01-30T02:46:35;21.15;;;13.95;;
48040;SDS011;33815;48.386;11.738;2024-01-30T02:49:00;24.98;;;14.18;;
48040;SDS011;33815;48.386;11.738;2024-01-30T02:51:26;25.85;;;14.70;;
48040;SDS011;33815;48.386;11.738;2024-01-30T02:53:51;25.27;;;14.02;;
48040;SDS011;33815;48.386;11.738;2024-01-30T02:56:17;25.95;;;15.20;;
48040;SDS011;33815;48.386;11.738;2024-01-30T02:58:43;20.35;;;13.90;;
48040;SDS011;33815;48.386;11.738;2024-01-30T03:01:08;21.95;;;14.18;;
48040;SDS011;33815;48.386;11.738;2024-01-30T03:03:33;24.63;;;15.07;;
48040;SDS011;33815;48.386;11.738;2024-01-30T03:06:02;29.27;;;15.20;;
48040;SDS011;33815;48.386;11.738;2024-01-30T03:08:27;23.48;;;14.20;;
48040;SDS011;33815;48.386;11.738;2024-01-30T03:10:53;27.42;;;15.07;;
48040;SDS011;33815;48.386;11.738;2024-01-30T03:13:18;23.33;;;15.43;;
48040;SDS011;33815;48.386;11.738;2024-01-30T03:15:43;28.35;;;16.23;;
48040;SDS011;33815;48.386;11.738;2024-01-30T03:18:09;29.08;;;15.15;;
48040;SDS011;33815;48.386;11.738;2024-01-30T03:20:34;30.40;;;14.55;;
48040;SDS011;33815;48.386;11.738;2024-01-30T03:22:59;24.98;;;14.35;;
48040;SDS011;33815;48.386;11.738;2024-01-30T03:25:25;30.85;;;15.13;;
48040;SDS011;33815;48.386;11.738;2024-01-30T03:27:51;26.48;;;15.43;;
48040;SDS011;33815;48.386;11.738;2024-01-30T03:30:16;25.90;;;14.45;;
48040;SDS011;33815;48.386;11.738;2024-01-30T03:32:42;26.60;;;15.82;;
48040;SDS011;33815;48.386;11.738;2024-01-30T03:35:07;23.30;;;14.77;;
48040;SDS011;33815;48.386;11.738;2024-01-30T03:37:33;24.17;;;14.93;;
48040;SDS011;33815;48.386;11.738;2024-01-30T03:39:58;27.73;;;15.38;;
48040;SDS011;33815;48.386;11.738;2024-01-30T03:42:24;28.23;;;15.77;;
48040;SDS011;33815;48.386;11.738;2024-01-30T03:44:49;26.08;;;15.55;;
48040;SDS011;33815;48.386;11.738;2024-01-30T03:47:18;26.27;;;15.18;;
48040;SDS011;33815;48.386;11.738;2024-01-30T03:49:43;28.42;;;15.82;;
48040;SDS011;33815;48.386;11.738;2024-01-30T03:52:08;25.55;;;15.45;;
48040;SDS011;33815;48.386;11.738;2024-01-30T03:54:34;23.45;;;15.65;;
48040;SDS011;33815;48.386;11.738;2024-01-30T03:56:59;27.10;;;13.73;;
48040;SDS011;33815;48.386;11.738;2024-01-30T03:59:25;25.70;;;14.57;;
48040;SDS011;33815;48.386;11.738;2024-01-30T04:01:50;22.33;;;13.68;;
48040;SDS011;33815;48.386;11.738;2024-01-30T04:04:16;25.60;;;14.18;;
48040;SDS011;33815;48.386;11.738;2024-01-30T04:06:42;22.58;;;13.52;;
48040;SDS011;33815;48.386;11.738;2024-01-30T04:09:08;21.08;;;13.35;;
48040;SDS011;33815;48.386;11.738;2024-01-30T04:11:33;19.00;;;12.45;;
48040;SDS011;33815;48.386;11.738;2024-01-30T04:13:58;24.38;;;13.00;;
48040;SDS011;33815;48.386;11.738;2024-01-30T04:16:23;26.92;;;12.65;;
48040;SDS011;33815;48.386;11.738;2024-01-30T04:18:49;18.70;;;10.60;;
48040;SDS011;33815;48.386;11.738;2024-01-30T04:21:14;19.67;;;11.15;;
48040;SDS011;33815;48.386;11.738;2024-01-30T04:23:40;17.25;;;11.95;;
48040;SDS011;33815;48.386;11.738;2024-01-30T04:26:05;18.60;;;12.18;;
48040;SDS011;33815;48.386;11.738;2024-01-30T04:28:31;23.65;;;11.18;;
48040;SDS011;33815;48.386;11.738;2024-01-30T04:30:56;17.13;;;11.82;;
48040;SDS011;33815;48.386;11.738;2024-01-30T04:33:21;20.13;;;11.65;;
48040;SDS011;33815;48.386;11.738;2024-01-30T04:35:47;18.63;;;12.35;;
48040;SDS011;33815;48.386;11.738;2024-01-30T04:38:12;18.75;;;11.52;;
48040;SDS011;33815;48.386;11.738;2024-01-30T04:40:39;18.88;;;12.13;;
48040;SDS011;33815;48.386;11.738;2024-01-30T04:43:04;21.80;;;12.88;;
48040;SDS011;33815;48.386;11.738;2024-01-30T04:45:29;24.75;;;11.98;;
48040;SDS011;33815;48.386;11.738;2024-01-30T04:47:55;22.60;;;11.93;;
48040;SDS011;33815;48.386;11.738;2024-01-30T04:50:20;22.02;;;11.13;;
48040;SDS011;33815;48.386;11.738;2024-01-30T04:52:45;26.70;;;12.85;;
48040;SDS011;33815;48.386;11.738;2024-01-30T04:55:11;18.67;;;12.40;;
48040;SDS011;33815;48.386;11.738;2024-01-30T04:57:36;20.67;;;13.38;;
48040;SDS011;33815;48.386;11.738;2024-01-30T05:00:01;20.92;;;12.55;;
48040;SDS011;33815;48.386;11.738;2024-01-30T05:02:27;22.30;;;12.77;;
48040;SDS011;33815;48.386;11.738;2024-01-30T05:04:52;18.73;;;11.18;;
48040;SDS011;33815;48.386;11.738;2024-01-30T05:07:17;20.58;;;12.73;;
48040;SDS011;33815;48.386;11.738;2024-01-30T05:09:43;15.68;;;10.93;;
48040;SDS011;33815;48.386;11.738;2024-01-30T05:12:08;18.67;;;12.40;;
48040;SDS011;33815;48.386;11.738;2024-01-30T05:14:34;20.50;;;11.57;;
48040;SDS011;33815;48.386;11.738;2024-01-30T05:16:59;22.13;;;11.75;;
48040;SDS011;33815;48.386;11.738;2024-01-30T05:19:24;22.63;;;13.05;;
48040;SDS011;33815;48.386;11.738;2024-01-30T05:21:49;22.67;;;12.48;;
48040;SDS011;33815;48.386;11.738;2024-01-30T05:24:15;18.25;;;12.10;;
48040;SDS011;33815;48.386;11.738;2024-01-30T05:26:40;17.70;;;11.00;;
48040;SDS011;33815;48.386;11.738;2024-01-30T05:29:06;16.77;;;12.32;;
48040;SDS011;33815;48.386;11.738;2024-01-30T05:31:32;23.10;;;12.35;;
48040;SDS011;33815;48.386;11.738;2024-01-30T05:33:59;20.30;;;12.00;;
48040;SDS011;33815;48.386;11.738;2024-01-30T05:36:24;18.75;;;12.35;;
48040;SDS011;33815;48.386;11.738;2024-01-30T05:38:49;20.77;;;11.82;;
48040;SDS011;33815;48.386;11.738;2024-01-30T05:41:15;20.67;;;12.15;;
48040;SDS011;33815;48.386;11.738;2024-01-30T05:43:40;20.98;;;11.88;;
48040;SDS011;33815;48.386;11.738;2024-01-30T05:46:06;21.88;;;12.52;;
48040;SDS011;33815;48.386;11.738;2024-01-30T05:48:31;17.50;;;11.32;;
48040;SDS011;33815;48.386;11.738;2024-01-30T05:50:56;19.15;;;12.05;;
48040;SDS011;33815;48.386;11.738;2024-01-30T05:53:22;16.08;;;11.63;;
48040;SDS011;33815;48.386;11.738;2024-01-30T05:55:47;20.98;;;11.82;;
48040;SDS011;33815;48.386;11.738;2024-01-30T05:58:12;19.00;;;11.95;;
48040;SDS011;33815;48.386;11.738;2024-01-30T06:00:37;21.55;;;12.65;;
48040;SDS011;33815;48.386;11.738;2024-01-30T06:03:03;20.48;;;12.88;;
48040;SDS011;33815;48.386;11.738;2024-01-30T06:05:28;17.63;;;11.85;;
48040;SDS011;33815;48.386;11.738;2024-01-30T06:07:53;21.05;;;12.27;;
48040;SDS011;33815;48.386;11.738;2024-01-30T06:10:19;22.55;;;12.18;;
48040;SDS011;33815;48.386;11.738;2024-01-30T06:12:44;19.45;;;12.07;;
48040;SDS011;33815;48.386;11.738;2024-01-30T06:15:09;21.17;;;12.75;;
48040;SDS011;33815;48.386;11.738;2024-01-30T06:17:35;23.60;;;12.65;;
48040;SDS011;33815;48.386;11.738;2024-01-30T06:20:00;19.63;;;12.15;;
48040;SDS011;33815;48.386;11.738;2024-01-30T06:22:25;18.77;;;12.98;;
48040;SDS011;33815;48.386;11.738;2024-01-30T06:24:51;19.08;;;12.80;;
48040;SDS011;33815;48.386;11.738;2024-01-30T06:27:16;28.48;;;14.43;;
48040;SDS011;33815;48.386;11.738;2024-01-30T06:29:42;24.85;;;14.48;;
48040;SDS011;33815;48.386;11.738;2024-01-30T06:32:08;25.05;;;13.43;;
48040;SDS011;33815;48.386;11.738;2024-01-30T06:34:33;22.38;;;13.27;;
48040;SDS011;33815;48.386;11.738;2024-01-30T06:36:59;27.13;;;14.02;;
48040;SDS011;33815;48.386;11.738;2024-01-30T06:39:24;19.38;;;12.65;;
48040;SDS011;33815;48.386;11.738;2024-01-30T06:41:51;26.00;;;14.48;;
48040;SDS011;33815;48.386;11.738;2024-01-30T06:44:16;20.65;;;13.60;;
48040;SDS011;33815;48.386;11.738;2024-01-30T06:46:41;31.17;;;16.52;;
48040;SDS011;33815;48.386;11.738;2024-01-30T06:49:07;23.38;;;14.27;;
48040;SDS011;33815;48.386;11.738;2024-01-30T06:51:32;22.15;;;14.95;;
48040;SDS011;33815;48.386;11.738;2024-01-30T06:53:57;24.63;;;13.55;;
48040;SDS011;33815;48.386;11.738;2024-01-30T06:56:22;24.30;;;13.10;;
48040;SDS011;33815;48.386;11.738;2024-01-30T06:58:48;25.20;;;13.90;;
48040;SDS011;33815;48.386;11.738;2024-01-30T07:01:15;22.95;;;13.23;;
48040;SDS011;33815;48.386;11.738;2024-01-30T07:03:41;21.73;;;13.63;;
48040;SDS011;33815;48.386;11.738;2024-01-30T07:06:06;25.20;;;13.70;;
48040;SDS011;33815;48.386;11.738;2024-01-30T07:08:32;26.38;;;14.18;;
48040;SDS011;33815;48.386;11.738;2024-01-30T07:10:57;24.05;;;14.55;;
48040;SDS011;33815;48.386;11.738;2024-01-30T07:13:22;25.70;;;15.55;;
48040;SDS011;33815;48.386;11.738;2024-01-30T07:15:48;25.50;;;14.60;;
48040;SDS011;33815;48.386;11.738;2024-01-30T07:18:13;22.77;;;14.00;;
48040;SDS011;33815;48.386;11.738;2024-01-30T07:20:38;24.70;;;15.00;;
48040;SDS011;33815;48.386;11.738;2024-01-30T07:23:10;24.70;;;14.68;;
48040;SDS011;33815;48.386;11.738;2024-01-30T07:25:38;24.73;;;15.63;;
48040;SDS011;33815;48.386;11.738;2024-01-30T07:28:06;23.75;;;14.73;;
48040;SDS011;33815;48.386;11.738;2024-01-30T07:30:31;26.60;;;14.25;;
48040;SDS011;33815;48.386;11.738;2024-01-30T07:32:56;25.90;;;15.05;;
48040;SDS011;33815;48.386;11.738;2024-01-30T07:35:22;25.13;;;16.33;;
48040;SDS011;33815;48.386;11.738;2024-01-30T07:37:47;23.77;;;15.20;;
48040;SDS011;33815;48.386;11.738;2024-01-30T07:40:12;25.17;;;14.48;;
48040;SDS011;33815;48.386;11.738;2024-01-30T07:42:38;30.02;;;16.88;;
48040;SDS011;33815;48.386;11.738;2024-01-30T07:45:03;28.05;;;16.08;;
48040;SDS011;33815;48.386;11.738;2024-01-30T07:47:29;26.00;;;15.52;;
48040;SDS011;33815;48.386;11.738;2024-01-30T07:49:54;24.48;;;15.98;;
48040;SDS011;33815;48.386;11.738;2024-01-30T07:52:19;23.20;;;15.95;;
48040;SDS011;33815;48.386;11.738;2024-01-30T07:54:44;28.60;;;16.83;;
48040;SDS011;33815;48.386;11.738;2024-01-30T07:57:10;34.45;;;16.58;;
48040;SDS011;33815;48.386;11.738;2024-01-30T07:59:35;27.63;;;15.82;;
48040;SDS011;33815;48.386;11.738;2024-01-30T08:02:00;29.67;;;15.25;;
48040;SDS011;33815;48.386;11.738;2024-01-30T08:04:26;29.20;;;16.02;;
48040;SDS011;33815;48.386;11.738;2024-01-30T08:06:51;27.08;;;16.63;;
48040;SDS011;33815;48.386;11.738;2024-01-30T08:09:16;26.83;;;16.40;;
48040;SDS011;33815;48.386;11.738;2024-01-30T08:11:41;31.17;;;18.05;;
48040;SDS011;33815;48.386;11.738;2024-01-30T08:14:07;30.33;;;17.95;;
48040;SDS011;33815;48.386;11.738;2024-01-30T08:16:32;34.25;;;18.08;;
48040;SDS011;33815;48.386;11.738;2024-01-30T08:18:57;27.98;;;17.77;;
48040;SDS011;33815;48.386;11.738;2024-01-30T08:21:22;26.65;;;15.93;;
48040;SDS011;33815;48.386;11.738;2024-01-30T08:23:48;30.27;;;17.02;;
48040;SDS011;33815;48.386;11.738;2024-01-30T08:26:13;29.67;;;17.73;;
48040;SDS011;33815;48.386;11.738;2024-01-30T08:28:38;27.23;;;17.95;;
48040;SDS011;33815;48.386;11.738;2024-01-30T08:31:04;27.98;;;17.38;;
48040;SDS011;33815;48.386;11.738;2024-01-30T08:33:29;31.52;;;16.80;;
48040;SDS011;33815;48.386;11.738;2024-01-30T08:35:54;27.50;;;17.00;;
48040;SDS011;33815;48.386;11.738;2024-01-30T08:38:19;30.13;;;19.00;;
48040;SDS011;33815;48.386;11.738;2024-01-30T08:40:45;34.78;;;20.45;;
48040;SDS011;33815;48.386;11.738;2024-01-30T08:43:10;31.95;;;20.15;;
48040;SDS011;33815;48.386;11.738;2024-01-30T08:45:35;33.65;;;19.63;;
48040;SDS011;33815;48.386;11.738;2024-01-30T08:48:00;31.17;;;18.73;;
48040;SDS011;33815;48.386;11.738;2024-01-30T08:50:26;37.35;;;19.45;;
48040;SDS011;33815;48.386;11.738;2024-01-30T08:52:51;32.92;;;18.08;;
48040;SDS011;33815;48.386;11.738;2024-01-30T08:55:17;31.35;;;17.95;;
48040;SDS011;33815;48.386;11.738;2024-01-30T08:57:42;29.63;;;16.15;;
48040;SDS011;33815;48.386;11.738;2024-01-30T09:00:07;33.42;;;20.10;;
48040;SDS011;33815;48.386;11.738;2024-01-30T09:02:34;33.63;;;21.45;;
48040;SDS011;33815;48.386;11.738;2024-01-30T09:04:59;31.10;;;20.00;;
48040;SDS011;33815;48.386;11.738;2024-01-30T09:07:25;28.70;;;17.17;;
48040;SDS011;33815;48.386;11.738;2024-01-30T09:09:50;29.70;;;18.70;;
48040;SDS011;33815;48.386;11.738;2024-01-30T09:12:15;27.65;;;16.83;;
48040;SDS011;33815;48.386;11.738;2024-01-30T09:14:41;19.27;;;13.27;;
48040;SDS011;33815;48.386;11.738;2024-01-30T09:17:06;25.25;;;15.00;;
48040;SDS011;33815;48.386;11.738;2024-01-30T09:19:31;22.85;;;14.73;;
48040;SDS011;33815;48.386;11.738;2024-01-30T09:21:57;22.00;;;14.27;;
48040;SDS011;33815;48.386;11.738;2024-01-30T09:24:22;21.10;;;14.13;;
48040;SDS011;33815;48.386;11.738;2024-01-30T09:26:47;18.33;;;13.55;;
48040;SDS011;33815;48.386;11.738;2024-01-30T09:29:13;23.35;;;13.55;;
48040;SDS011;33815;48.386;11.738;2024-01-30T09:31:38;17.27;;;12.40;;
48040;SDS011;33815;48.386;11.738;2024-01-30T09:34:03;17.70;;;11.77;;
48040;SDS011;33815;48.386;11.738;2024-01-30T09:36:28;14.95;;;10.13;;
48040;SDS011;33815;48.386;11.738;2024-01-30T09:38:54;20.08;;;11.35;;
48040;SDS011;33815;48.386;11.738;2024-01-30T09:41:19;15.60;;;9.85;;
48040;SDS011;33815;48.386;11.738;2024-01-30T09:43:48;18.80;;;10.55;;
48040;SDS011;33815;48.386;11.738;2024-01-30T09:46:16;15.95;;;9.75;;
48040;SDS011;33815;48.386;11.738;2024-01-30T09:48:43;16.10;;;10.48;;
48040;SDS011;33815;48.386;11.738;2024-01-30T09:51:11;14.77;;;10.05;;
48040;SDS011;33815;48.386;11.738;2024-01-30T09:53:39;17.20;;;10.13;;
48040;SDS011;33815;48.386;11.738;2024-01-30T09:56:05;15.93;;;8.90;;
48040;SDS011;33815;48.386;11.738;2024-01-30T09:58:30;11.38;;;7.78;;
48040;SDS011;33815;48.386;11.738;2024-01-30T10:00:56;9.07;;;7.10;;
48040;SDS011;33815;48.386;11.738;2024-01-30T10:03:22;12.32;;;7.95;;
48040;SDS011;33815;48.386;11.738;2024-01-30T10:05:53;11.52;;;6.97;;
48040;SDS011;33815;48.386;11.738;2024-01-30T10:08:20;10.23;;;7.10;;
48040;SDS011;33815;48.386;11.738;2024-01-30T10:10:49;10.38;;;7.10;;
48040;SDS011;33815;48.386;11.738;2024-01-30T10:13:15;10.15;;;7.13;;
48040;SDS011;33815;48.386;11.738;2024-01-30T10:15:40;11.07;;;7.10;;
48040;SDS011;33815;48.386;11.738;2024-01-30T10:18:06;13.13;;;7.90;;
48040;SDS011;33815;48.386;11.738;2024-01-30T10:20:32;12.75;;;7.93;;
48040;SDS011;33815;48.386;11.738;2024-01-30T10:22:58;13.10;;;7.50;;
48040;SDS011;33815;48.386;11.738;2024-01-30T10:25:23;12.50;;;7.63;;
48040;SDS011;33815;48.386;11.738;2024-01-30T10:27:52;11.73;;;8.80;;
48040;SDS011;33815;48.386;11.738;2024-01-30T10:30:21;11.55;;;8.32;;
48040;SDS011;33815;48.386;11.738;2024-01-30T10:32:47;17.25;;;8.52;;
48040;SDS011;33815;48.386;11.738;2024-01-30T10:35:12;13.25;;;9.38;;
48040;SDS011;33815;48.386;11.738;2024-01-30T10:37:38;11.50;;;7.78;;
48040;SDS011;33815;48.386;11.738;2024-01-30T10:40:03;12.20;;;8.18;;
48040;SDS011;33815;48.386;11.738;2024-01-30T10:42:32;19.65;;;9.32;;
48040;SDS011;33815;48.386;11.738;2024-01-30T10:47:43;13.30;;;9.23;;
48040;SDS011;33815;48.386;11.738;2024-01-30T10:50:13;13.57;;;8.25;;
48040;SDS011;33815;48.386;11.738;2024-01-30T10:52:39;12.55;;;8.88;;
48040;SDS011;33815;48.386;11.738;2024-01-30T10:55:07;15.80;;;8.38;;
48040;SDS011;33815;48.386;11.738;2024-01-30T10:57:33;14.52;;;8.02;;
48040;SDS011;33815;48.386;11.738;2024-01-30T11:00:00;19.02;;;9.45;;
48040;SDS011;33815;48.386;11.738;2024-01-30T11:02:30;15.23;;;8.50;;
48040;SDS011;33815;48.386;11.738;2024-01-30T11:04:57;14.30;;;8.13;;
48040;SDS011;33815;48.386;11.738;2024-01-30T11:07:25;11.20;;;8.10;;
48040;SDS011;33815;48.386;11.738;2024-01-30T11:12:23;11.50;;;7.63;;
48040;SDS011;33815;48.386;11.738;2024-01-30T11:15:01;12.23;;;9.23;;
48040;SDS011;33815;48.386;11.738;2024-01-30T11:20:29;12.20;;;7.30;;
48040;SDS011;33815;48.386;11.738;2024-01-30T11:22:56;9.25;;;7.50;;
48040;SDS011;33815;48.386;11.738;2024-01-30T11:25:22;11.73;;;7.00;;
48040;SDS011;33815;48.386;11.738;2024-01-30T11:27:53;11.85;;;7.68;;
48040;SDS011;33815;48.386;11.738;2024-01-30T11:33:04;11.15;;;7.15;;
48040;SDS011;33815;48.386;11.738;2024-01-30T11:35:36;12.10;;;7.18;;
48040;SDS011;33815;48.386;11.738;2024-01-30T11:38:04;8.38;;;5.88;;
48040;SDS011;33815;48.386;11.738;2024-01-30T11:40:31;11.77;;;6.65;;
48040;SDS011;33815;48.386;11.738;2024-01-30T11:42:58;9.10;;;5.80;;
48040;SDS011;33815;48.386;11.738;2024-01-30T11:45:25;9.60;;;5.05;;
48040;SDS011;33815;48.386;11.738;2024-01-30T11:47:51;9.43;;;4.20;;
48040;SDS011;33815;48.386;11.738;2024-01-30T11:50:17;7.38;;;4.45;;
48040;SDS011;33815;48.386;11.738;2024-01-30T11:52:43;7.40;;;4.57;;
48040;SDS011;33815;48.386;11.738;2024-01-30T11:55:09;4.78;;;4.28;;
48040;SDS011;33815;48.386;11.738;2024-01-30T11:57:35;5.88;;;4.38;;
48040;SDS011;33815;48.386;11.738;2024-01-30T12:00:01;6.13;;;4.70;;
48040;SDS011;33815;48.386;11.738;2024-01-30T12:02:35;5.57;;;4.13;;
48040;SDS011;33815;48.386;11.738;2024-01-30T12:05:04;5.72;;;4.68;;
48040;SDS011;33815;48.386;11.738;2024-01-30T12:07:30;8.40;;;5.05;;
48040;SDS011;33815;48.386;11.738;2024-01-30T12:09:56;6.93;;;5.15;;
48040;SDS011;33815;48.386;11.738;2024-01-30T12:12:28;11.82;;;5.05;;
48040;SDS011;33815;48.386;11.738;2024-01-30T12:14:54;7.25;;;5.07;;
48040;SDS011;33815;48.386;11.738;2024-01-30T12:22:51;7.00;;;5.30;;
48040;SDS011;33815;48.386;11.738;2024-01-30T12:25:18;6.22;;;5.13;;
48040;SDS011;33815;48.386;11.738;2024-01-30T12:27:47;8.50;;;4.65;;
48040;SDS011;33815;48.386;11.738;2024-01-30T12:30:17;7.22;;;4.45;;
48040;SDS011;33815;48.386;11.738;2024-01-30T12:32:44;8.40;;;4.60;;
48040;SDS011;33815;48.386;11.738;2024-01-30T12:35:16;4.40;;;3.75;;
48040;SDS011;33815;48.386;11.738;2024-01-30T12:37:43;4.97;;;3.13;;
48040;SDS011;33815;48.386;11.738;2024-01-30T12:40:09;5.78;;;3.88;;
48040;SDS011;33815;48.386;11.738;2024-01-30T12:42:36;6.65;;;3.90;;
48040;SDS011;33815;48.386;11.738;2024-01-30T12:45:02;9.02;;;4.25;;
48040;SDS011;33815;48.386;11.738;2024-01-30T12:47:29;6.22;;;3.95;;
48040;SDS011;33815;48.386;11.738;2024-01-30T12:49:54;7.45;;;4.22;;
48040;SDS011;33815;48.386;11.738;2024-01-30T12:52:20;6.03;;;3.90;;
48040;SDS011;33815;48.386;11.738;2024-01-30T12:54:47;4.57;;;3.70;;
48040;SDS011;33815;48.386;11.738;2024-01-30T12:57:12;5.55;;;3.42;;
48040;SDS011;33815;48.386;11.738;2024-01-30T12:59:38;14.43;;;3.60;;
48040;SDS011;33815;48.386;11.738;2024-01-30T13:02:04;11.20;;;4.10;;
48040;SDS011;33815;48.386;11.738;2024-01-30T13:04:29;6.95;;;4.38;;
48040;SDS011;33815;48.386;11.738;2024-01-30T13:06:54;7.78;;;3.90;;
48040;SDS011;33815;48.386;11.738;2024-01-30T13:09:20;5.43;;;3.83;;
48040;SDS011;33815;48.386;11.738;2024-01-30T13:11:45;5.45;;;3.88;;
48040;SDS011;33815;48.386;11.738;2024-01-30T13:14:11;4.97;;;3.78;;
48040;SDS011;33815;48.386;11.738;2024-01-30T13:16:36;5.60;;;4.03;;
48040;SDS011;33815;48.386;11.738;2024-01-30T13:19:01;9.40;;;4.07;;
48040;SDS011;33815;48.386;11.738;2024-01-30T13:21:27;6.93;;;4.72;;
48040;SDS011;33815;48.386;11.738;2024-01-30T13:23:53;8.15;;;4.68;;
48040;SDS011;33815;48.386;11.738;2024-01-30T13:26:19;7.97;;;4.65;;
48040;SDS011;33815;48.386;11.738;2024-01-30T13:28:45;9.27;;;4.88;;
48040;SDS011;33815;48.386;11.738;2024-01-30T13:31:10;6.85;;;4.43;;
48040;SDS011;33815;48.386;11.738;2024-01-30T13:33:36;7.97;;;5.15;;
48040;SDS011;33815;48.386;11.738;2024-01-30T13:36:01;7.80;;;4.80;;
48040;SDS011;33815;48.386;11.738;2024-01-30T13:38:27;6.43;;;4.18;;
48040;SDS011;33815;48.386;11.738;2024-01-30T13:40:52;6.70;;;4.80;;
48040;SDS011;33815;48.386;11.738;2024-01-30T13:43:17;5.77;;;4.53;;
48040;SDS011;33815;48.386;11.738;2024-01-30T13:45:42;7.47;;;4.68;;
48040;SDS011;33815;48.386;11.738;2024-01-30T13:48:08;6.45;;;4.45;;
48040;SDS011;33815;48.386;11.738;2024-01-30T13:50:33;7.10;;;4.30;;
48040;SDS011;33815;48.386;11.738;2024-01-30T13:52:59;6.85;;;3.88;;
48040;SDS011;33815;48.386;11.738;2024-01-30T13:55:24;7.90;;;5.13;;
48040;SDS011;33815;48.386;11.738;2024-01-30T13:57:50;12.38;;;4.47;;
48040;SDS011;33815;48.386;11.738;2024-01-30T14:00:15;6.82;;;4.10;;
48040;SDS011;33815;48.386;11.738;2024-01-30T14:02:41;7.38;;;4.10;;
48040;SDS011;33815;48.386;11.738;2024-01-30T14:05:07;7.38;;;4.30;;
48040;SDS011;33815;48.386;11.738;2024-01-30T14:07:32;6.45;;;4.60;;
48040;SDS011;33815;48.386;11.738;2024-01-30T14:09:57;5.68;;;4.40;;
48040;SDS011;33815;48.386;11.738;2024-01-30T14:12:22;7.60;;;4.07;;
48040;SDS011;33815;48.386;11.738;2024-01-30T14:14:48;6.15;;;4.03;;
48040;SDS011;33815;48.386;11.738;2024-01-30T14:17:13;10.20;;;4.95;;
48040;SDS011;33815;48.386;11.738;2024-01-30T14:19:39;6.57;;;4.63;;
48040;SDS011;33815;48.386;11.738;2024-01-30T14:22:04;6.50;;;4.38;;
48040;SDS011;33815;48.386;11.738;2024-01-30T14:24:30;5.32;;;4.03;;